Baia Mare, Baia Mare Airport (LRBM)

NameBaia Mare Airport
CityBaia Mare
CountryRomania
ICAOLRBM
IATABAY
Altitude184 m
CoordinatesGoogle Map
Live Air TrafficLiveATC.net
METARLRBM 251730Z AUTO 30005KT 250V340 9999 FEW075 BKN095 11/03 Q1004
2020-04-25 17:30:00 Wind: West-Northwest (300°) 2.57 m/s - Visibility: > 10000 m - Temperature: 11 °C - Dew point: 3 °C - Humidity: 58.1% - Pressure: 1004 hPa

Sorry, no flights used the airport in this database.